createdAt,value
2023-03-05T00:01:24.404Z,5.13
2023-03-05T00:03:52.920Z,5.17
2023-03-05T00:06:21.024Z,5.04
2023-03-05T00:08:49.202Z,5.22
2023-03-05T00:11:16.601Z,5.23
2023-03-05T00:13:43.542Z,5.24
2023-03-05T00:16:13.472Z,5.25
2023-03-05T00:18:40.441Z,5.24
2023-03-05T00:21:32.021Z,4.75
2023-03-05T00:24:01.616Z,5.11
2023-03-05T00:26:29.564Z,4.68
2023-03-05T00:28:57.908Z,5.26
2023-03-05T00:31:30.521Z,5.27
2023-03-05T00:34:00.089Z,5.28
2023-03-05T00:36:27.758Z,5.29
2023-03-05T00:38:54.697Z,5.29
2023-03-05T00:41:21.766Z,5.29
2023-03-05T00:43:48.960Z,5.29
2023-03-05T00:46:18.292Z,5.20
2023-03-05T00:48:44.963Z,5.29
2023-03-05T00:51:11.688Z,5.25
2023-03-05T00:53:40.803Z,5.29
2023-03-05T00:56:07.515Z,5.15
2023-03-05T00:58:36.236Z,5.15
2023-03-05T01:01:03.909Z,5.28
2023-03-05T01:03:32.021Z,5.26
2023-03-05T01:05:59.477Z,5.13
2023-03-05T01:08:26.463Z,5.17
2023-03-05T01:10:53.502Z,5.01
2023-03-05T01:13:21.023Z,5.18
2023-03-05T01:15:48.788Z,5.07
2023-03-05T01:18:18.088Z,4.97
2023-03-05T01:20:44.828Z,4.99
2023-03-05T01:23:11.550Z,5.15
2023-03-05T01:25:38.214Z,5.11
2023-03-05T01:28:05.042Z,5.15
2023-03-05T01:30:31.649Z,5.03
2023-03-05T01:33:00.433Z,5.04
2023-03-05T01:35:27.179Z,4.94
2023-03-05T01:37:54.460Z,5.05
2023-03-05T01:40:26.154Z,5.00
2023-03-05T01:43:12.649Z,5.10
2023-03-05T01:46:17.866Z,5.10
2023-03-05T01:48:54.741Z,5.08
2023-03-05T01:51:26.935Z,4.98
2023-03-05T01:53:58.055Z,5.09
2023-03-05T01:56:26.003Z,4.61
2023-03-05T01:58:54.700Z,4.96
2023-03-05T02:01:21.524Z,5.04
2023-03-05T02:03:48.662Z,4.99
2023-03-05T02:06:15.513Z,5.05
2023-03-05T02:08:42.119Z,4.92
2023-03-05T02:11:11.449Z,4.95
2023-03-05T02:13:40.873Z,4.95
2023-03-05T02:16:08.071Z,4.88
2023-03-05T02:18:37.236Z,4.74
2023-03-05T02:21:11.381Z,4.82
2023-03-05T02:23:38.874Z,4.76
2023-03-05T02:26:08.402Z,4.96
2023-03-05T02:28:45.533Z,4.73
2023-03-05T02:31:18.993Z,4.98
2023-03-05T02:33:49.306Z,4.97
2023-03-05T02:36:15.958Z,4.93
2023-03-05T02:38:43.546Z,4.95
2023-03-05T02:41:10.454Z,4.89
2023-03-05T02:43:39.766Z,4.80
2023-03-05T02:46:06.589Z,4.87
2023-03-05T02:48:35.940Z,4.85
2023-03-05T02:51:05.555Z,4.77
2023-03-05T02:53:32.151Z,4.68
2023-03-05T02:55:58.857Z,4.43
2023-03-05T02:58:25.524Z,4.48
2023-03-05T03:00:54.361Z,4.33
2023-03-05T03:03:23.146Z,4.23
2023-03-05T03:05:54.317Z,4.23
2023-03-05T03:08:21.029Z,4.29
2023-03-05T03:10:47.652Z,4.26
2023-03-05T03:13:14.286Z,4.26
2023-03-05T03:15:40.884Z,4.24
2023-03-05T03:18:07.552Z,3.98
2023-03-05T03:20:36.677Z,4.25
2023-03-05T03:23:08.575Z,4.29
2023-03-05T03:25:35.231Z,4.12
2023-03-05T03:28:01.863Z,4.33
2023-03-05T03:30:30.487Z,4.27
2023-03-05T03:32:57.102Z,4.34
2023-03-05T03:35:23.725Z,4.32
2023-03-05T03:37:50.449Z,4.34
2023-03-05T03:40:17.622Z,4.36
2023-03-05T03:42:44.286Z,4.29
2023-03-05T03:45:16.717Z,4.29
2023-03-05T03:47:45.094Z,3.45
2023-03-05T03:50:14.205Z,3.28
2023-03-05T03:52:45.635Z,4.22
2023-03-05T03:55:12.250Z,4.37
2023-03-05T03:57:41.131Z,4.37
2023-03-05T04:00:11.517Z,4.30
2023-03-05T04:02:38.341Z,4.36
2023-03-05T04:05:05.336Z,4.36
2023-03-05T04:07:31.963Z,4.37
2023-03-05T04:09:58.649Z,4.25
2023-03-05T04:12:25.270Z,4.19
2023-03-05T04:14:52.022Z,4.37
2023-03-05T04:17:20.781Z,3.90
2023-03-05T04:19:47.433Z,4.36
2023-03-05T04:22:18.229Z,4.28
2023-03-05T04:24:45.057Z,4.24
2023-03-05T04:27:13.110Z,4.20
2023-03-05T04:29:39.766Z,4.25
2023-03-05T04:32:06.916Z,4.28
2023-03-05T04:34:33.962Z,4.03
2023-03-05T04:37:02.775Z,4.26
2023-03-05T04:39:29.471Z,4.22
2023-03-05T04:41:58.383Z,4.28
2023-03-05T04:44:26.139Z,4.36
2023-03-05T04:46:52.829Z,4.32
2023-03-05T04:49:19.438Z,4.25
2023-03-05T04:51:46.088Z,4.33
2023-03-05T04:54:12.687Z,4.34
2023-03-05T04:56:39.272Z,4.34
2023-03-05T04:59:06.060Z,3.38
2023-03-05T05:01:35.490Z,4.36
2023-03-05T05:04:02.449Z,4.35
2023-03-05T05:06:29.145Z,4.35
2023-03-05T05:08:57.833Z,4.35
2023-03-05T05:11:24.495Z,4.34
2023-03-05T05:13:51.117Z,4.33
2023-03-05T05:16:22.319Z,4.19
2023-03-05T05:18:51.508Z,4.20
2023-03-05T05:21:20.664Z,4.27
2023-03-05T05:23:47.432Z,4.26
2023-03-05T05:26:16.542Z,4.21
2023-03-05T05:28:46.809Z,4.32
2023-03-05T05:31:16.028Z,4.25
2023-03-05T05:33:42.964Z,3.52
2023-03-05T05:36:15.853Z,4.22
2023-03-05T05:38:42.853Z,4.15
2023-03-05T05:41:12.532Z,4.25
2023-03-05T05:43:39.400Z,4.24
2023-03-05T05:46:08.888Z,4.06
2023-03-05T05:48:36.633Z,3.54
2023-03-05T05:51:08.993Z,3.57
2023-03-05T05:53:36.502Z,3.31
2023-03-05T05:56:07.801Z,4.07
2023-03-05T05:58:34.598Z,4.20
2023-03-05T06:01:01.384Z,4.20
2023-03-05T06:03:28.665Z,4.18
2023-03-05T06:05:55.814Z,4.20
2023-03-05T06:08:22.413Z,4.19
2023-03-05T06:10:55.508Z,4.23
2023-03-05T06:13:22.305Z,3.76
2023-03-05T06:15:57.747Z,4.22
2023-03-05T06:18:24.470Z,4.18
2023-03-05T06:20:59.343Z,4.08
2023-03-05T06:23:26.974Z,4.17
2023-03-05T06:25:53.897Z,4.25
2023-03-05T06:28:20.942Z,4.18
2023-03-05T06:30:47.869Z,4.05
2023-03-05T06:33:14.536Z,4.20
2023-03-05T06:35:41.687Z,4.22
2023-03-05T06:38:09.111Z,4.30
2023-03-05T06:40:39.282Z,4.32
2023-03-05T06:43:06.873Z,4.14
2023-03-05T06:45:35.981Z,4.25
2023-03-05T06:48:04.947Z,4.37
2023-03-05T06:50:35.876Z,4.23
2023-03-05T06:53:05.628Z,4.43
2023-03-05T06:55:39.642Z,4.49
2023-03-05T06:58:07.163Z,4.45
2023-03-05T07:00:34.300Z,4.50
2023-03-05T07:03:01.242Z,4.52
2023-03-05T07:05:28.044Z,4.55
2023-03-05T07:07:54.816Z,4.61
2023-03-05T07:10:21.526Z,4.57
2023-03-05T07:12:50.410Z,4.72
2023-03-05T07:15:17.149Z,4.65
2023-03-05T07:17:43.728Z,4.70
2023-03-05T07:20:10.927Z,4.90
2023-03-05T07:22:38.716Z,4.92
2023-03-05T07:25:05.847Z,5.00
2023-03-05T07:27:37.732Z,5.06
2023-03-05T07:30:05.270Z,5.13
2023-03-05T07:32:32.540Z,4.60
2023-03-05T07:35:03.961Z,4.99
2023-03-05T07:37:32.796Z,5.11
2023-03-05T07:39:59.562Z,5.26
2023-03-05T07:42:28.691Z,5.26
2023-03-05T07:44:55.419Z,5.42
2023-03-05T07:47:23.392Z,5.48
2023-03-05T07:49:50.281Z,5.55
2023-03-05T07:52:21.774Z,5.46
2023-03-05T07:54:48.649Z,5.78
2023-03-05T07:57:16.302Z,5.84
2023-03-05T07:59:43.315Z,5.75
2023-03-05T08:02:12.639Z,5.92
2023-03-05T08:04:40.382Z,5.59
2023-03-05T08:07:09.254Z,6.01
2023-03-05T08:09:35.837Z,6.04
2023-03-05T08:12:02.412Z,6.09
2023-03-05T08:14:32.075Z,6.16
2023-03-05T08:16:58.665Z,6.07
2023-03-05T08:19:25.247Z,6.36
2023-03-05T08:21:51.856Z,5.94
2023-03-05T08:24:21.102Z,6.58
2023-03-05T08:26:49.914Z,6.59
2023-03-05T08:29:16.510Z,6.80
2023-03-05T08:31:46.426Z,7.01
2023-03-05T08:34:15.745Z,7.20
2023-03-05T08:36:42.572Z,7.25
2023-03-05T08:39:09.984Z,7.31
2023-03-05T08:41:36.634Z,7.18
2023-03-05T08:44:07.385Z,7.04
2023-03-05T08:46:34.853Z,6.88
2023-03-05T08:49:03.663Z,6.80
2023-03-05T08:51:30.435Z,6.69
2023-03-05T08:53:59.365Z,6.74
2023-03-05T08:56:28.480Z,6.80
2023-03-05T08:58:55.182Z,6.80
2023-03-05T09:01:22.671Z,6.43
2023-03-05T09:03:52.257Z,6.71
2023-03-05T09:06:21.560Z,6.70
2023-03-05T09:08:48.228Z,6.63
2023-03-05T09:11:19.363Z,6.66
2023-03-05T09:13:46.046Z,6.92
2023-03-05T09:16:15.646Z,6.90
2023-03-05T09:18:42.802Z,6.92
2023-03-05T09:21:14.691Z,7.16
2023-03-05T09:23:42.297Z,7.19
2023-03-05T09:26:12.231Z,7.24
2023-03-05T09:28:40.582Z,7.33
2023-03-05T09:31:12.182Z,7.40
2023-03-05T09:33:41.653Z,7.30
2023-03-05T09:36:19.458Z,7.45
2023-03-05T09:38:46.275Z,7.60
2023-03-05T09:41:22.187Z,7.54
2023-03-05T09:44:15.432Z,7.40
2023-03-05T09:46:54.830Z,7.28
2023-03-05T09:49:28.830Z,7.21
2023-03-05T09:52:09.504Z,7.20
2023-03-05T09:54:41.699Z,7.08
2023-03-05T09:57:18.479Z,6.83
2023-03-05T09:59:59.073Z,6.82
2023-03-05T10:02:27.959Z,6.78
2023-03-05T10:05:09.774Z,6.80
2023-03-05T10:07:43.445Z,6.82
2023-03-05T10:10:14.823Z,6.83
2023-03-05T10:12:46.561Z,6.77
2023-03-05T10:15:16.078Z,6.78
2023-03-05T10:18:19.653Z,6.94
2023-03-05T10:21:18.975Z,7.17
2023-03-05T10:24:08.769Z,7.37
2023-03-05T10:27:06.010Z,7.48
2023-03-05T10:29:53.726Z,7.49
2023-03-05T10:32:48.345Z,7.41
2023-03-05T10:35:44.599Z,7.31
2023-03-05T10:38:33.132Z,7.35
2023-03-05T10:41:32.221Z,7.39
2023-03-05T10:44:15.598Z,7.50
2023-03-05T10:46:43.310Z,7.58
2023-03-05T10:49:25.196Z,7.37
2023-03-05T10:51:53.385Z,7.85
2023-03-05T10:54:29.696Z,7.95
2023-03-05T10:57:03.849Z,8.08
2023-03-05T10:59:32.399Z,8.06
2023-03-05T11:02:08.997Z,7.90
2023-03-05T11:04:38.853Z,7.86
2023-03-05T11:07:32.236Z,8.05
2023-03-05T11:10:04.827Z,8.05
2023-03-05T11:12:35.512Z,7.97
2023-03-05T11:15:10.989Z,7.80
2023-03-05T11:17:44.901Z,7.90
2023-03-05T11:20:23.692Z,8.07
2023-03-05T11:23:12.019Z,8.23
2023-03-05T11:26:01.275Z,8.36
2023-03-05T11:28:52.872Z,8.34
2023-03-05T11:31:19.655Z,8.38
2023-03-05T11:34:00.176Z,8.52
2023-03-05T11:36:31.731Z,8.64
2023-03-05T11:39:11.875Z,8.58
2023-03-05T11:42:00.660Z,8.62
2023-03-05T11:44:35.802Z,8.47
2023-03-05T11:47:16.846Z,8.51
2023-03-05T11:49:50.522Z,8.54
2023-03-05T11:52:26.393Z,8.53
2023-03-05T11:55:27.425Z,8.54
2023-03-05T11:58:22.576Z,8.73
2023-03-05T12:00:49.704Z,8.96
2023-03-05T12:03:23.115Z,9.05
2023-03-05T12:06:30.092Z,9.17
2023-03-05T12:08:59.953Z,9.09
2023-03-05T12:11:29.218Z,9.12
2023-03-05T12:14:35.852Z,9.10
2023-03-05T12:17:40.898Z,9.03
2023-03-05T12:20:27.228Z,8.99
2023-03-05T12:22:57.203Z,8.94
2023-03-05T12:25:30.216Z,9.04
2023-03-05T12:28:02.760Z,8.99
2023-03-05T12:30:36.323Z,8.90
2023-03-05T12:33:19.116Z,8.79
2023-03-05T12:35:54.196Z,8.73
2023-03-05T12:38:43.903Z,8.28
2023-03-05T12:41:53.639Z,8.73
2023-03-05T12:44:22.039Z,8.92
2023-03-05T12:47:12.042Z,8.87
2023-03-05T12:49:40.132Z,8.86
2023-03-05T12:52:26.589Z,8.64
2023-03-05T12:55:28.602Z,8.75
2023-03-05T12:58:04.864Z,8.82
2023-03-05T13:00:46.379Z,8.89
2023-03-05T13:03:22.071Z,8.99
2023-03-05T13:05:52.470Z,9.07
2023-03-05T13:08:35.554Z,9.18
2023-03-05T13:11:12.065Z,9.22
2023-03-05T13:13:43.858Z,9.43
2023-03-05T13:16:21.092Z,9.62
2023-03-05T13:18:52.397Z,8.96
2023-03-05T13:21:27.088Z,9.48
2023-03-05T13:23:59.690Z,9.53
2023-03-05T13:26:32.819Z,9.68
2023-03-05T13:29:11.666Z,9.68
2023-03-05T13:31:46.275Z,9.61
2023-03-05T13:34:46.186Z,9.54
2023-03-05T13:37:19.216Z,9.57
2023-03-05T13:40:02.535Z,9.56
2023-03-05T13:42:34.871Z,9.63
2023-03-05T13:45:04.480Z,9.52
2023-03-05T13:47:36.611Z,9.36
2023-03-05T13:50:07.457Z,9.39
2023-03-05T13:52:38.056Z,9.41
2023-03-05T13:55:14.646Z,9.33
2023-03-05T13:57:53.693Z,9.50
2023-03-05T14:00:39.072Z,9.46
2023-03-05T14:03:24.384Z,9.53
2023-03-05T14:05:52.189Z,9.61
2023-03-05T14:08:28.567Z,9.65
2023-03-05T14:10:57.576Z,9.60
2023-03-05T14:13:32.447Z,9.58
2023-03-05T14:16:09.923Z,9.64
2023-03-05T14:18:37.725Z,9.43
2023-03-05T14:21:09.697Z,9.56
2023-03-05T14:23:36.302Z,9.60
2023-03-05T14:26:34.961Z,9.58
2023-03-05T14:29:15.476Z,9.37
2023-03-05T14:31:48.224Z,9.52
2023-03-05T14:34:40.615Z,9.46
2023-03-05T14:37:24.672Z,9.55
2023-03-05T14:40:07.885Z,9.58
2023-03-05T14:42:38.394Z,9.49
2023-03-05T14:45:16.684Z,9.56
2023-03-05T14:47:43.353Z,9.48
2023-03-05T14:50:22.638Z,9.42
2023-03-05T14:52:52.674Z,9.41
2023-03-05T14:55:22.973Z,9.40
2023-03-05T14:57:51.725Z,9.38
2023-03-05T15:00:24.844Z,9.31
2023-03-05T15:02:51.517Z,9.27
2023-03-05T15:05:19.287Z,9.21
2023-03-05T15:07:46.648Z,9.07
2023-03-05T15:10:18.842Z,8.97
2023-03-05T15:12:50.580Z,8.93
2023-03-05T15:15:21.122Z,8.77
2023-03-05T15:17:57.507Z,8.82
2023-03-05T15:20:27.518Z,8.71
2023-03-05T15:22:56.545Z,8.72
2023-03-05T15:25:26.697Z,8.72
2023-03-05T15:27:53.301Z,8.62
2023-03-05T15:30:26.877Z,8.58
2023-03-05T15:32:55.109Z,8.58
2023-03-05T15:35:22.274Z,8.54
2023-03-05T15:37:51.135Z,8.53
2023-03-05T15:40:18.050Z,8.50
2023-03-05T15:42:47.044Z,8.41
2023-03-05T15:45:13.763Z,8.28
2023-03-05T15:47:40.433Z,8.30
2023-03-05T15:50:07.740Z,8.21
2023-03-05T15:52:34.502Z,8.15
2023-03-05T15:55:01.973Z,8.04
2023-03-05T15:57:29.171Z,7.98
2023-03-05T15:59:57.978Z,7.81
2023-03-05T16:02:29.455Z,7.48
2023-03-05T16:04:56.110Z,7.81
2023-03-05T16:07:25.718Z,7.75
2023-03-05T16:09:55.012Z,7.69
2023-03-05T16:12:26.398Z,7.66
2023-03-05T16:14:53.091Z,7.57
2023-03-05T16:17:22.210Z,7.36
2023-03-05T16:19:52.271Z,7.38
2023-03-05T16:22:19.096Z,7.35
2023-03-05T16:24:45.683Z,7.31
2023-03-05T16:27:13.090Z,7.28
2023-03-05T16:29:39.667Z,7.17
2023-03-05T16:32:08.866Z,6.92
2023-03-05T16:34:35.574Z,7.20
2023-03-05T16:37:04.540Z,7.18
2023-03-05T16:39:33.416Z,7.21
2023-03-05T16:42:00.080Z,7.05
2023-03-05T16:44:29.117Z,6.63
2023-03-05T16:46:56.490Z,6.69
2023-03-05T16:49:23.636Z,7.09
2023-03-05T16:51:50.203Z,6.70
2023-03-05T16:54:16.784Z,6.93
2023-03-05T16:56:48.124Z,6.95
2023-03-05T16:59:17.238Z,6.97
2023-03-05T17:01:44.830Z,6.95
2023-03-05T17:04:13.772Z,6.82
2023-03-05T17:06:40.610Z,6.87
2023-03-05T17:09:07.279Z,6.87
2023-03-05T17:11:33.883Z,6.83
2023-03-05T17:14:00.549Z,6.77
2023-03-05T17:16:27.241Z,6.80
2023-03-05T17:18:53.765Z,6.77
2023-03-05T17:21:20.321Z,6.76
2023-03-05T17:23:46.914Z,6.72
2023-03-05T17:26:17.819Z,6.74
2023-03-05T17:28:45.228Z,6.72
2023-03-05T17:31:14.236Z,6.55
2023-03-05T17:33:44.304Z,6.70
2023-03-05T17:36:16.944Z,6.71
2023-03-05T17:38:47.665Z,6.71
2023-03-05T17:41:15.926Z,6.67
2023-03-05T17:43:43.089Z,6.49
2023-03-05T17:46:10.087Z,6.59
2023-03-05T17:48:39.095Z,6.54
2023-03-05T17:51:07.442Z,6.50
2023-03-05T17:53:35.188Z,6.50
2023-03-05T17:56:02.341Z,5.72
2023-03-05T17:58:28.976Z,6.47
2023-03-05T18:00:55.581Z,6.42
2023-03-05T18:03:24.656Z,6.40
2023-03-05T18:05:54.405Z,6.38
2023-03-05T18:08:21.178Z,6.32
2023-03-05T18:10:47.840Z,6.11
2023-03-05T18:13:14.464Z,6.13
2023-03-05T18:15:47.398Z,6.07
2023-03-05T18:18:15.681Z,6.01
2023-03-05T18:20:42.593Z,5.95
2023-03-05T18:23:10.047Z,5.76
2023-03-05T18:25:36.673Z,5.74
2023-03-05T18:28:07.227Z,5.44
2023-03-05T18:30:34.344Z,5.64
2023-03-05T18:33:01.436Z,5.19
2023-03-05T18:35:29.323Z,5.73
2023-03-05T18:37:57.108Z,5.71
2023-03-05T18:40:26.246Z,5.70
2023-03-05T18:42:52.915Z,5.67
2023-03-05T18:45:21.544Z,5.63
2023-03-05T18:47:49.088Z,5.64
2023-03-05T18:50:18.637Z,5.64
2023-03-05T18:52:46.371Z,5.64
2023-03-05T18:55:21.200Z,5.56
2023-03-05T18:57:50.062Z,5.58
2023-03-05T19:00:24.682Z,5.63
2023-03-05T19:02:51.422Z,5.64
2023-03-05T19:05:18.838Z,5.50
2023-03-05T19:07:45.827Z,5.65
2023-03-05T19:10:14.641Z,5.65
2023-03-05T19:12:55.638Z,5.16
2023-03-05T19:15:22.958Z,5.57
2023-03-05T19:17:50.085Z,5.52
2023-03-05T19:20:18.006Z,5.25
2023-03-05T19:22:46.871Z,5.29
2023-03-05T19:25:13.856Z,5.41
2023-03-05T19:27:40.576Z,5.26
2023-03-05T19:30:08.337Z,5.35
2023-03-05T19:32:35.260Z,5.32
2023-03-05T19:35:02.532Z,5.17
2023-03-05T19:37:33.166Z,5.04
2023-03-05T19:39:59.823Z,5.31
2023-03-05T19:42:26.782Z,5.28
2023-03-05T19:44:54.424Z,5.19
2023-03-05T19:47:24.256Z,5.30
2023-03-05T19:49:50.875Z,5.30
2023-03-05T19:52:19.908Z,5.28
2023-03-05T19:54:48.729Z,5.24
2023-03-05T19:57:15.307Z,5.18
2023-03-05T19:59:44.096Z,5.23
2023-03-05T20:02:13.048Z,4.80
2023-03-05T20:04:39.636Z,5.21
2023-03-05T20:07:11.029Z,5.05
2023-03-05T20:09:37.660Z,5.12
2023-03-05T20:12:05.629Z,5.19
2023-03-05T20:14:34.412Z,5.18
2023-03-05T20:17:01.016Z,5.02
2023-03-05T20:19:27.688Z,5.18
2023-03-05T20:21:54.264Z,5.11
2023-03-05T20:24:23.262Z,5.13
2023-03-05T20:26:49.893Z,4.82
2023-03-05T20:29:19.207Z,5.08
2023-03-05T20:31:50.040Z,4.62
2023-03-05T20:34:22.606Z,5.14
2023-03-05T20:36:49.372Z,4.95
2023-03-05T20:39:19.254Z,5.11
2023-03-05T20:41:46.909Z,5.10
2023-03-05T20:44:16.542Z,5.10
2023-03-05T20:46:53.724Z,5.07
2023-03-05T20:49:20.469Z,5.05
2023-03-05T20:51:50.235Z,4.84
2023-03-05T20:54:20.200Z,4.89
2023-03-05T20:56:47.780Z,5.03
2023-03-05T20:59:14.573Z,5.03
2023-03-05T21:01:41.390Z,5.04
2023-03-05T21:04:08.701Z,5.03
2023-03-05T21:06:36.012Z,5.04
2023-03-05T21:09:03.227Z,5.02
2023-03-05T21:11:29.957Z,5.01
2023-03-05T21:13:59.332Z,4.98
2023-03-05T21:16:27.431Z,4.92
2023-03-05T21:18:57.420Z,4.67
2023-03-05T21:21:24.926Z,4.92
2023-03-05T21:23:54.150Z,4.95
2023-03-05T21:26:20.971Z,4.73
2023-03-05T21:28:47.942Z,4.92
2023-03-05T21:31:18.857Z,4.90
2023-03-05T21:33:48.123Z,4.89
2023-03-05T21:36:18.787Z,4.75
2023-03-05T21:38:49.289Z,4.81
2023-03-05T21:41:18.090Z,4.82
2023-03-05T21:43:44.889Z,4.78
2023-03-05T21:46:11.688Z,3.44
2023-03-05T21:48:38.392Z,4.78
2023-03-05T21:51:09.095Z,4.75
2023-03-05T21:53:36.323Z,4.74
2023-03-05T21:56:19.469Z,4.69
2023-03-05T21:58:50.911Z,4.62
2023-03-05T22:01:19.558Z,4.65
2023-03-05T22:03:47.271Z,4.75
2023-03-05T22:06:18.258Z,4.74
2023-03-05T22:08:45.110Z,4.69
2023-03-05T22:11:14.768Z,4.64
2023-03-05T22:13:41.928Z,4.62
2023-03-05T22:16:09.360Z,3.34
2023-03-05T22:18:36.823Z,4.61
2023-03-05T22:21:04.212Z,4.59
2023-03-05T22:23:34.727Z,4.45
2023-03-05T22:26:05.117Z,3.60
2023-03-05T22:28:33.081Z,4.36
2023-03-05T22:31:01.988Z,4.30
2023-03-05T22:33:29.069Z,4.29
2023-03-05T22:35:55.794Z,4.38
2023-03-05T22:38:25.785Z,4.36
2023-03-05T22:40:53.052Z,3.84
2023-03-05T22:43:22.427Z,4.33
2023-03-05T22:45:49.344Z,3.77
2023-03-05T22:48:16.584Z,4.29
2023-03-05T22:50:48.919Z,4.13
2023-03-05T22:53:15.492Z,4.25
2023-03-05T22:55:42.869Z,4.26
2023-03-05T22:58:10.006Z,4.25
2023-03-05T23:00:37.390Z,4.18
2023-03-05T23:03:04.201Z,4.20
2023-03-05T23:05:30.802Z,3.98
2023-03-05T23:07:59.954Z,3.85
2023-03-05T23:10:28.796Z,4.15
2023-03-05T23:12:58.123Z,4.12
2023-03-05T23:15:30.842Z,4.05
2023-03-05T23:17:58.462Z,3.95
2023-03-05T23:20:30.291Z,3.93
2023-03-05T23:22:57.125Z,3.86
2023-03-05T23:25:27.785Z,3.77
2023-03-05T23:27:54.875Z,3.77
2023-03-05T23:30:32.020Z,3.72
2023-03-05T23:33:00.526Z,3.67
2023-03-05T23:35:32.747Z,3.48
2023-03-05T23:38:01.488Z,3.48
2023-03-05T23:40:35.702Z,3.55
2023-03-05T23:43:02.798Z,3.54
2023-03-05T23:45:32.085Z,3.51
2023-03-05T23:47:59.387Z,3.46
2023-03-05T23:50:37.768Z,3.39
2023-03-05T23:53:07.560Z,2.59
2023-03-05T23:55:38.709Z,3.53
2023-03-05T23:58:05.367Z,3.37
